createdAt,value
2019-04-25T00:02:04.376Z,98741.50
2019-04-25T00:04:32.131Z,98743.02
2019-04-25T00:06:59.912Z,98738.28
2019-04-25T00:09:31.841Z,98740.48
2019-04-25T00:12:00.026Z,98746.07
2019-04-25T00:14:31.356Z,98745.27
2019-04-25T00:16:59.216Z,98747.77
2019-04-25T00:19:27.042Z,98749.41
2019-04-25T00:22:05.834Z,98757.52
2019-04-25T00:24:43.015Z,98771.64
2019-04-25T00:27:11.779Z,98772.64
2019-04-25T00:29:40.972Z,98766.29
2019-04-25T00:32:09.669Z,98756.61
2019-04-25T00:34:37.420Z,98754.79
2019-04-25T00:37:05.389Z,98748.41
2019-04-25T00:39:33.162Z,98770.47
2019-04-25T00:42:02.382Z,98774.01
2019-04-25T00:44:31.961Z,98772.79
2019-04-25T00:46:59.855Z,98780.55
2019-04-25T00:49:27.628Z,98780.77
2019-04-25T00:51:55.674Z,98785.73
2019-04-25T00:54:23.443Z,98792.13
2019-04-25T00:56:52.759Z,98798.98
2019-04-25T00:59:27.288Z,98809.00
2019-04-25T01:02:23.922Z,98810.20
2019-04-25T01:04:52.821Z,98806.11
2019-04-25T01:07:22.397Z,98811.42
2019-04-25T01:09:52.117Z,98811.16
2019-04-25T01:12:21.577Z,98816.78
2019-04-25T01:14:49.426Z,98816.01
2019-04-25T01:17:17.770Z,98815.72
2019-04-25T01:19:45.795Z,98820.17
2019-04-25T01:22:14.527Z,98826.28
2019-04-25T01:24:43.867Z,98817.30
2019-04-25T01:27:13.521Z,98818.17
2019-04-25T01:29:41.410Z,98827.36
2019-04-25T01:32:11.374Z,98830.31
2019-04-25T01:34:48.523Z,98826.75
2019-04-25T01:37:27.847Z,98824.64
2019-04-25T01:40:14.126Z,98827.30
2019-04-25T01:43:01.616Z,98842.52
2019-04-25T01:45:31.811Z,98841.06
2019-04-25T01:47:59.565Z,98847.28
2019-04-25T01:50:27.321Z,98843.53
2019-04-25T01:52:55.645Z,98845.68
2019-04-25T01:55:23.644Z,98852.38
2019-04-25T01:57:51.407Z,98848.78
2019-04-25T02:00:24.848Z,98849.45
2019-04-25T02:03:04.449Z,98845.88
2019-04-25T02:05:33.820Z,98851.61
2019-04-25T02:08:01.691Z,98856.38
2019-04-25T02:10:29.422Z,98873.23
2019-04-25T02:13:00.179Z,98879.28
2019-04-25T02:15:30.671Z,98874.38
2019-04-25T02:17:59.364Z,98870.77
2019-04-25T02:20:27.956Z,98866.55
2019-04-25T02:22:56.458Z,98874.70
2019-04-25T02:25:24.675Z,98870.14
2019-04-25T02:27:54.441Z,98873.42
2019-04-25T02:30:25.393Z,98877.17
2019-04-25T02:32:56.957Z,98882.27
2019-04-25T02:35:24.326Z,98889.13
2019-04-25T02:37:52.021Z,98893.39
2019-04-25T02:40:20.361Z,98892.56
2019-04-25T02:43:03.172Z,98890.92
2019-04-25T02:46:06.172Z,98894.20
2019-04-25T02:49:09.210Z,98900.58
2019-04-25T02:51:45.168Z,98891.75
2019-04-25T02:54:14.003Z,98893.07
2019-04-25T02:56:41.835Z,98894.86
2019-04-25T02:59:09.573Z,98894.84
2019-04-25T03:01:37.351Z,98897.96
2019-04-25T03:04:10.653Z,98895.00
2019-04-25T03:06:35.144Z,98893.22
2019-04-25T03:09:07.509Z,98901.39
2019-04-25T03:11:35.511Z,98900.56
2019-04-25T03:14:06.598Z,98893.84
2019-04-25T03:16:34.774Z,98901.22
2019-04-25T03:19:26.370Z,98907.59
2019-04-25T03:21:55.949Z,98915.42
2019-04-25T03:24:25.141Z,98917.40
2019-04-25T03:26:53.300Z,98919.54
2019-04-25T03:29:21.070Z,98927.21
2019-04-25T03:31:48.860Z,98927.88
2019-04-25T03:34:20.293Z,98935.21
2019-04-25T03:36:46.191Z,98940.13
2019-04-25T03:39:16.276Z,98944.05
2019-04-25T03:41:43.831Z,98945.52
2019-04-25T03:44:13.967Z,98945.19
2019-04-25T03:46:41.857Z,98951.06
2019-04-25T03:49:09.708Z,98951.91
2019-04-25T03:51:37.458Z,98952.73
2019-04-25T03:54:07.435Z,98955.00
2019-04-25T03:56:34.849Z,98954.99
2019-04-25T03:59:04.918Z,98959.09
2019-04-25T04:01:34.121Z,98964.96
2019-04-25T04:04:04.630Z,98975.59
2019-04-25T04:06:31.657Z,98975.10
2019-04-25T04:08:59.461Z,98981.15
2019-04-25T04:11:27.265Z,98981.33
2019-04-25T04:13:55.547Z,98987.54
2019-04-25T04:16:27.441Z,98992.60
2019-04-25T04:18:56.242Z,98990.34
2019-04-25T04:21:48.889Z,98997.35
2019-04-25T04:24:25.962Z,98999.14
2019-04-25T04:27:07.937Z,99003.05
2019-04-25T04:29:35.956Z,99005.81
2019-04-25T04:32:03.932Z,99011.38
2019-04-25T04:34:31.709Z,99013.18
2019-04-25T04:36:59.557Z,99012.39
2019-04-25T04:39:27.334Z,99007.83
2019-04-25T04:41:55.549Z,99003.58
2019-04-25T04:44:24.133Z,99000.16
2019-04-25T04:46:53.849Z,99004.59
2019-04-25T04:49:21.968Z,99004.94
2019-04-25T04:51:50.086Z,99010.15
2019-04-25T04:54:17.857Z,99010.16
2019-04-25T04:56:45.723Z,99007.70
2019-04-25T04:59:14.603Z,99013.13
2019-04-25T05:02:01.242Z,98998.38
2019-04-25T05:04:36.354Z,99000.84
2019-04-25T05:07:25.247Z,99001.97
2019-04-25T05:09:53.506Z,99007.38
2019-04-25T05:12:21.657Z,99016.42
2019-04-25T05:14:49.493Z,99010.41
2019-04-25T05:17:17.637Z,99014.48
2019-04-25T05:19:45.389Z,99017.92
2019-04-25T05:22:14.916Z,99026.93
2019-04-25T05:24:43.845Z,99016.42
2019-04-25T05:27:12.777Z,99034.41
2019-04-25T05:29:41.269Z,99039.75
2019-04-25T05:32:09.231Z,99036.31
2019-04-25T05:34:37.218Z,99012.47
2019-04-25T05:37:04.984Z,98992.75
2019-04-25T05:39:33.449Z,98991.70
2019-04-25T05:42:11.371Z,98995.36
2019-04-25T05:44:39.091Z,98999.97
2019-04-25T05:47:06.887Z,98994.55
2019-04-25T05:49:34.618Z,98993.11
2019-04-25T05:52:04.025Z,98998.49
2019-04-25T05:54:31.836Z,98996.27
2019-04-25T05:56:59.589Z,99003.64
2019-04-25T05:59:28.004Z,98997.11
2019-04-25T06:01:58.758Z,98990.84
2019-04-25T06:04:27.296Z,98996.02
2019-04-25T06:06:55.331Z,98990.66
2019-04-25T06:09:45.456Z,98991.59
2019-04-25T06:12:48.373Z,98993.42
2019-04-25T06:15:18.445Z,98991.98
2019-04-25T06:18:17.741Z,98984.48
2019-04-25T06:20:45.923Z,98983.56
2019-04-25T06:23:38.477Z,98984.05
2019-04-25T06:26:19.869Z,98985.05
2019-04-25T06:28:36.069Z,98995.23
2019-04-25T06:31:04.698Z,98997.89
2019-04-25T06:33:34.001Z,98986.84
2019-04-25T06:36:01.847Z,98986.05
2019-04-25T06:38:29.652Z,98981.69
2019-04-25T06:40:57.479Z,98990.83
2019-04-25T06:43:25.897Z,98986.17
2019-04-25T06:46:14.047Z,98982.44
2019-04-25T06:48:46.748Z,98987.11
2019-04-25T06:51:14.512Z,98974.79
2019-04-25T06:53:43.603Z,98968.03
2019-04-25T06:56:13.565Z,98957.55
2019-04-25T06:58:41.687Z,98952.95
2019-04-25T07:01:09.440Z,98951.06
2019-04-25T07:03:37.219Z,98905.95
2019-04-25T07:06:05.097Z,98942.17
2019-04-25T07:08:33.389Z,98935.56
2019-04-25T07:11:03.894Z,98937.38
2019-04-25T07:13:35.201Z,98920.29
2019-04-25T07:16:03.059Z,98926.31
2019-04-25T07:18:33.751Z,98916.25
2019-04-25T07:21:01.007Z,98914.22
2019-04-25T07:23:29.644Z,98911.37
2019-04-25T07:26:06.953Z,98890.42
2019-04-25T07:28:57.238Z,98904.25
2019-04-25T07:31:37.044Z,98904.89
2019-04-25T07:34:09.826Z,98903.58
2019-04-25T07:36:37.608Z,98903.22
2019-04-25T07:39:10.624Z,98902.89
2019-04-25T07:41:38.497Z,98900.55
2019-04-25T07:44:06.668Z,98897.11
2019-04-25T07:46:39.274Z,98888.46
2019-04-25T07:49:04.417Z,98891.05
2019-04-25T07:51:34.322Z,98889.86
2019-04-25T07:54:01.869Z,98886.81
2019-04-25T07:56:29.632Z,98887.04
2019-04-25T07:58:57.334Z,98894.25
2019-04-25T08:01:25.201Z,98893.84
2019-04-25T08:03:53.773Z,98888.10
2019-04-25T08:06:22.615Z,98890.38
2019-04-25T08:08:51.993Z,98883.75
2019-04-25T08:11:20.523Z,98886.23
2019-04-25T08:14:10.608Z,98889.64
2019-04-25T08:16:40.584Z,98884.39
2019-04-25T08:19:08.556Z,98881.30
2019-04-25T08:21:36.680Z,98879.06
2019-04-25T08:24:04.732Z,98874.93
2019-04-25T08:26:34.797Z,98875.84
2019-04-25T08:29:03.624Z,98868.73
2019-04-25T08:31:33.874Z,98864.27
2019-04-25T08:34:03.427Z,98865.14
2019-04-25T08:36:31.226Z,98862.52
2019-04-25T08:38:59.015Z,98863.58
2019-04-25T08:41:26.816Z,98863.92
2019-04-25T08:43:54.598Z,98865.04
2019-04-25T08:46:23.779Z,98861.34
2019-04-25T08:49:30.403Z,98859.95
2019-04-25T08:51:59.204Z,98863.34
2019-04-25T08:54:35.065Z,98861.28
2019-04-25T08:57:04.900Z,98856.04
2019-04-25T08:59:57.457Z,98859.02
2019-04-25T09:02:37.180Z,98850.75
2019-04-25T09:05:32.625Z,98848.45
2019-04-25T09:08:00.503Z,98837.83
2019-04-25T09:10:28.290Z,98829.63
2019-04-25T09:12:56.100Z,98829.11
2019-04-25T09:15:24.783Z,98830.07
2019-04-25T09:17:54.303Z,98829.09
2019-04-25T09:20:23.584Z,98824.03
2019-04-25T09:22:51.620Z,98817.15
2019-04-25T09:25:21.168Z,98810.39
2019-04-25T09:27:48.942Z,98814.89
2019-04-25T09:30:16.839Z,98815.53
2019-04-25T09:32:44.919Z,98812.52
2019-04-25T09:35:14.409Z,98804.30
2019-04-25T09:37:44.802Z,98797.19
2019-04-25T09:40:13.977Z,98795.28
2019-04-25T09:42:44.718Z,98793.73
2019-04-25T09:45:33.337Z,98786.53
2019-04-25T09:48:10.726Z,98781.91
2019-04-25T09:50:45.134Z,98779.03
2019-04-25T09:53:21.766Z,98776.36
2019-04-25T09:55:59.346Z,98772.32
2019-04-25T09:58:33.872Z,98769.24
2019-04-25T10:01:07.516Z,98771.58
2019-04-25T10:03:37.378Z,98761.98
2019-04-25T10:06:05.612Z,98769.58
2019-04-25T10:08:34.280Z,98771.11
2019-04-25T10:11:03.970Z,98763.86
2019-04-25T10:13:33.598Z,98762.98
2019-04-25T10:16:05.296Z,98750.04
2019-04-25T10:18:33.803Z,98745.16
2019-04-25T10:21:04.261Z,98744.97
2019-04-25T10:23:34.131Z,98745.78
2019-04-25T10:26:03.845Z,98737.50
2019-04-25T10:28:33.450Z,98737.00
2019-04-25T10:31:01.434Z,98724.20
2019-04-25T10:33:29.186Z,98719.87
2019-04-25T10:36:00.574Z,98717.79
2019-04-25T10:38:27.340Z,98714.72
2019-04-25T10:40:55.387Z,98706.34
2019-04-25T10:43:23.916Z,98703.42
2019-04-25T10:45:52.942Z,98700.52
2019-04-25T10:48:21.253Z,98692.67
2019-04-25T10:50:48.989Z,98688.88
2019-04-25T10:53:16.790Z,98676.30
2019-04-25T10:55:45.612Z,98679.75
2019-04-25T10:58:14.169Z,98672.06
2019-04-25T11:00:46.125Z,98666.61
2019-04-25T11:03:27.516Z,98663.11
2019-04-25T11:05:55.962Z,98661.83
2019-04-25T11:08:24.497Z,98664.41
2019-04-25T11:10:53.807Z,98658.80
2019-04-25T11:13:22.804Z,98653.98
2019-04-25T11:15:50.606Z,98645.89
2019-04-25T11:18:18.450Z,98644.23
2019-04-25T11:20:46.238Z,98643.89
2019-04-25T11:23:14.314Z,98635.91
2019-04-25T11:25:42.984Z,98635.31
2019-04-25T11:28:12.028Z,98625.79
2019-04-25T11:30:43.569Z,98624.48
2019-04-25T11:33:11.870Z,98622.67
2019-04-25T11:35:39.602Z,98617.47
2019-04-25T11:38:09.319Z,98610.69
2019-04-25T11:40:46.578Z,98614.37
2019-04-25T11:43:14.100Z,98607.33
2019-04-25T11:45:45.935Z,98597.67
2019-04-25T11:48:15.092Z,98594.95
2019-04-25T11:50:46.130Z,98585.86
2019-04-25T11:53:12.967Z,98581.55
2019-04-25T11:55:41.508Z,98584.72
2019-04-25T11:58:09.678Z,98584.44
2019-04-25T12:00:37.742Z,98582.22
2019-04-25T12:03:06.493Z,98572.70
2019-04-25T12:05:34.441Z,98561.30
2019-04-25T12:08:03.962Z,98553.61
2019-04-25T12:10:32.067Z,98539.60
2019-04-25T12:12:59.871Z,98544.02
2019-04-25T12:15:27.822Z,98546.30
2019-04-25T12:17:55.920Z,98540.53
2019-04-25T12:20:23.736Z,98535.11
2019-04-25T12:23:06.371Z,98529.41
2019-04-25T12:25:31.840Z,98524.92
2019-04-25T12:28:00.267Z,98522.01
2019-04-25T12:30:37.383Z,98526.84
2019-04-25T12:32:58.323Z,98528.84
2019-04-25T12:35:26.150Z,98527.00
2019-04-25T12:37:55.162Z,98529.06
2019-04-25T12:40:24.387Z,98532.33
2019-04-25T12:42:52.420Z,98527.27
2019-04-25T12:45:35.336Z,98519.17
2019-04-25T12:48:04.058Z,98529.88
2019-04-25T12:50:33.638Z,98512.36
2019-04-25T12:53:03.690Z,98510.67
2019-04-25T12:55:31.553Z,98508.48
2019-04-25T12:57:59.716Z,98498.14
2019-04-25T13:00:28.322Z,98495.30
2019-04-25T13:02:56.639Z,98484.00
2019-04-25T13:05:24.527Z,98489.28
2019-04-25T13:07:56.689Z,98472.70
2019-04-25T13:10:23.697Z,98490.59
2019-04-25T13:12:52.039Z,98499.36
2019-04-25T13:15:23.469Z,98490.42
2019-04-25T13:17:55.403Z,98499.31
2019-04-25T13:20:24.641Z,98481.85
2019-04-25T13:22:53.297Z,98472.75
2019-04-25T13:25:24.287Z,98466.45
2019-04-25T13:28:14.926Z,98458.33
2019-04-25T13:31:09.751Z,98463.17
2019-04-25T13:34:01.636Z,98458.54
2019-04-25T13:36:30.982Z,98454.75
2019-04-25T13:38:58.963Z,98439.02
2019-04-25T13:41:26.916Z,98434.57
2019-04-25T13:43:54.823Z,98437.42
2019-04-25T13:46:25.838Z,98444.04
2019-04-25T13:48:54.282Z,98436.30
2019-04-25T13:51:24.150Z,98428.27
2019-04-25T13:53:52.189Z,98433.67
2019-04-25T13:56:20.048Z,98420.72
2019-04-25T13:58:47.824Z,98429.39
2019-04-25T14:01:17.687Z,98417.88
2019-04-25T14:03:45.525Z,98427.29
2019-04-25T14:06:13.732Z,98433.34
2019-04-25T14:08:43.409Z,98416.16
2019-04-25T14:11:11.608Z,98414.19
2019-04-25T14:13:39.446Z,98402.58
2019-04-25T14:16:45.523Z,98401.05
2019-04-25T14:19:38.743Z,98411.81
2019-04-25T14:22:09.290Z,98401.27
2019-04-25T14:24:37.059Z,98393.64
2019-04-25T14:27:05.186Z,98391.98
2019-04-25T14:29:32.976Z,98379.41
2019-04-25T14:32:00.962Z,98373.69
2019-04-25T14:34:28.694Z,98369.86
2019-04-25T14:36:56.466Z,98364.95
2019-04-25T14:39:24.265Z,98364.09
2019-04-25T14:41:57.606Z,98370.69
2019-04-25T14:44:26.060Z,98364.33
2019-04-25T14:46:53.831Z,98359.48
2019-04-25T14:49:22.594Z,98362.59
2019-04-25T14:51:50.523Z,98359.41
2019-04-25T14:54:24.932Z,98353.30
2019-04-25T14:57:17.821Z,98349.20
2019-04-25T14:59:47.182Z,98351.61
2019-04-25T15:02:15.042Z,98335.83
2019-04-25T15:04:42.849Z,98333.19
2019-04-25T15:07:11.564Z,98321.21
2019-04-25T15:09:39.405Z,98325.82
2019-04-25T15:12:07.369Z,98331.91
2019-04-25T15:14:35.251Z,98328.58
2019-04-25T15:17:03.929Z,98328.74
2019-04-25T15:19:31.897Z,98326.42
2019-04-25T15:21:59.987Z,98327.47
2019-04-25T15:24:27.714Z,98324.12
2019-04-25T15:26:55.451Z,98326.13
2019-04-25T15:29:23.187Z,98328.72
2019-04-25T15:31:56.059Z,98327.92
2019-04-25T15:34:22.719Z,98327.83
2019-04-25T15:36:58.895Z,98325.89
2019-04-25T15:39:52.443Z,98321.66
2019-04-25T15:42:30.301Z,98328.59
2019-04-25T15:45:07.086Z,98333.27
2019-04-25T15:47:34.843Z,98331.72
2019-04-25T15:50:05.062Z,98328.35
2019-04-25T15:52:33.740Z,98328.02
2019-04-25T15:55:07.269Z,98324.39
2019-04-25T15:57:31.245Z,98333.16
2019-04-25T15:59:59.003Z,98336.05
2019-04-25T16:02:27.612Z,98336.34
2019-04-25T16:04:56.515Z,98328.08
2019-04-25T16:07:24.382Z,98330.28
2019-04-25T16:09:52.195Z,98327.10
2019-04-25T16:12:19.961Z,98325.63
2019-04-25T16:14:47.785Z,98324.92
2019-04-25T16:17:15.502Z,98321.01
2019-04-25T16:19:43.388Z,98315.47
2019-04-25T16:22:11.147Z,98315.30
2019-04-25T16:24:38.916Z,98307.91
2019-04-25T16:27:07.545Z,98316.30
2019-04-25T16:29:35.676Z,98314.44
2019-04-25T16:32:05.349Z,98312.72
2019-04-25T16:34:33.078Z,98305.20
2019-04-25T16:37:02.361Z,98303.81
2019-04-25T16:39:32.996Z,98305.85
2019-04-25T16:42:00.795Z,98302.31
2019-04-25T16:44:28.865Z,98307.33
2019-04-25T16:46:57.517Z,98304.93
2019-04-25T16:49:26.449Z,98306.34
2019-04-25T16:51:54.230Z,98306.59
2019-04-25T16:54:21.995Z,98311.55
2019-04-25T16:56:49.731Z,98319.47
2019-04-25T16:59:17.489Z,98314.09
2019-04-25T17:01:50.737Z,98312.77
2019-04-25T17:04:19.919Z,98309.30
2019-04-25T17:06:47.847Z,98312.01
2019-04-25T17:09:15.904Z,98309.53
2019-04-25T17:11:43.619Z,98311.34
2019-04-25T17:14:37.530Z,98309.85
2019-04-25T17:17:23.575Z,98305.59
2019-04-25T17:20:11.059Z,98302.75
2019-04-25T17:23:09.905Z,98307.10
2019-04-25T17:25:37.678Z,98304.83
2019-04-25T17:28:05.522Z,98300.37
2019-04-25T17:30:35.288Z,98301.22
2019-04-25T17:33:21.569Z,98297.34
2019-04-25T17:36:00.084Z,98296.84
2019-04-25T17:38:35.457Z,98296.78
2019-04-25T17:41:03.750Z,98297.16
2019-04-25T17:43:32.010Z,98292.61
2019-04-25T17:46:00.885Z,98294.53
2019-04-25T17:48:28.641Z,98291.00
2019-04-25T17:50:56.432Z,98286.50
2019-04-25T17:53:24.177Z,98283.19
2019-04-25T17:55:51.966Z,98285.09
2019-04-25T17:58:19.727Z,98290.69
2019-04-25T18:01:08.490Z,98291.72
2019-04-25T18:03:37.253Z,98292.16
2019-04-25T18:06:05.258Z,98297.06
2019-04-25T18:08:33.410Z,98294.52
2019-04-25T18:11:02.088Z,98297.58
2019-04-25T18:13:29.994Z,98296.94
2019-04-25T18:16:10.092Z,98304.80
2019-04-25T18:18:53.357Z,98298.30
2019-04-25T18:21:21.144Z,98303.11
2019-04-25T18:24:20.039Z,98304.83
2019-04-25T18:26:54.742Z,98310.50
2019-04-25T18:29:22.493Z,98310.31
2019-04-25T18:31:50.490Z,98316.37
2019-04-25T18:34:27.958Z,98292.00
2019-04-25T18:37:15.359Z,98313.84
2019-04-25T18:39:56.297Z,98316.97
2019-04-25T18:42:57.047Z,98323.04
2019-04-25T18:45:29.144Z,98321.47
2019-04-25T18:47:56.934Z,98323.27
2019-04-25T18:50:27.079Z,98320.62
2019-04-25T18:53:16.044Z,98319.80
2019-04-25T18:55:56.514Z,98322.69
2019-04-25T18:58:42.314Z,98322.08
2019-04-25T19:01:41.797Z,98320.38
2019-04-25T19:04:15.928Z,98318.50
2019-04-25T19:06:52.771Z,98320.94
2019-04-25T19:09:13.394Z,98317.33
2019-04-25T19:11:41.405Z,98320.35
2019-04-25T19:14:09.199Z,98322.91
2019-04-25T19:16:37.008Z,98325.56
2019-04-25T19:19:04.758Z,98322.54
2019-04-25T19:21:37.692Z,98329.28
2019-04-25T19:24:06.735Z,98328.19
2019-04-25T19:26:34.586Z,98329.27
2019-04-25T19:29:02.350Z,98332.27
2019-04-25T19:31:46.308Z,98335.52
2019-04-25T19:34:14.138Z,98330.97
2019-04-25T19:36:42.771Z,98336.41
2019-04-25T19:39:10.968Z,98340.75
2019-04-25T19:41:45.060Z,98342.22
2019-04-25T19:44:15.681Z,98345.23
2019-04-25T19:46:47.091Z,98350.92
2019-04-25T19:49:14.937Z,98352.61
2019-04-25T19:51:43.037Z,98350.89
2019-04-25T19:54:11.014Z,98356.82
2019-04-25T19:56:38.745Z,98360.80
2019-04-25T19:59:06.552Z,98369.26
2019-04-25T20:01:34.437Z,98375.11
2019-04-25T20:04:14.193Z,98378.47
2019-04-25T20:07:02.185Z,98382.73
2019-04-25T20:09:58.302Z,98387.83
2019-04-25T20:12:30.492Z,98378.37
2019-04-25T20:14:58.268Z,98377.06
2019-04-25T20:17:26.041Z,98371.81
2019-04-25T20:19:53.933Z,98364.05
2019-04-25T20:22:21.717Z,98364.45
2019-04-25T20:24:50.370Z,98377.88
2019-04-25T20:27:18.308Z,98419.31
2019-04-25T20:29:46.590Z,98440.52
2019-04-25T20:32:14.358Z,98449.67
2019-04-25T20:34:42.087Z,98445.13
2019-04-25T20:37:09.862Z,98455.14
2019-04-25T20:39:37.639Z,98468.20
2019-04-25T20:42:05.427Z,98478.08
2019-04-25T20:44:33.292Z,98473.55
2019-04-25T20:47:01.301Z,98483.52
2019-04-25T20:49:29.120Z,98489.00
2019-04-25T20:52:16.377Z,98484.08
2019-04-25T20:54:44.133Z,98488.41
2019-04-25T20:57:12.008Z,98493.85
2019-04-25T20:59:39.754Z,98497.97
2019-04-25T21:02:22.615Z,98497.53
2019-04-25T21:04:50.337Z,98501.25
2019-04-25T21:07:18.141Z,98515.88
2019-04-25T21:09:45.926Z,98526.55
2019-04-25T21:12:13.968Z,98531.93
2019-04-25T21:15:06.654Z,98533.03
2019-04-25T21:17:42.501Z,98540.52
2019-04-25T21:20:10.647Z,98544.01
2019-04-25T21:22:39.051Z,98563.11
2019-04-25T21:25:06.797Z,98570.87
2019-04-25T21:27:34.691Z,98566.00
2019-04-25T21:30:03.035Z,98569.65
2019-04-25T21:32:50.485Z,98570.03
2019-04-25T21:35:19.083Z,98582.15
2019-04-25T21:37:46.906Z,98585.23
2019-04-25T21:40:21.408Z,98594.41
2019-04-25T21:42:53.887Z,98594.17
2019-04-25T21:45:22.297Z,98598.41
2019-04-25T21:47:50.293Z,98606.87
2019-04-25T21:50:18.395Z,98598.67
2019-04-25T21:52:46.837Z,98609.55
2019-04-25T21:55:14.817Z,98605.05
2019-04-25T21:57:42.774Z,98606.13
2019-04-25T22:00:14.065Z,98614.07
2019-04-25T22:02:42.266Z,98613.88
2019-04-25T22:05:11.057Z,98630.63
2019-04-25T22:07:39.517Z,98623.16
2019-04-25T22:10:08.040Z,98624.31
2019-04-25T22:12:36.107Z,98616.34
2019-04-25T22:15:06.044Z,98608.30
2019-04-25T22:17:33.814Z,98611.70
2019-04-25T22:20:02.917Z,98615.34
2019-04-25T22:22:36.970Z,98618.19
2019-04-25T22:25:05.019Z,98618.47
2019-04-25T22:27:36.679Z,98621.88
2019-04-25T22:30:07.711Z,98619.65
2019-04-25T22:33:01.925Z,98614.28
2019-04-25T22:35:38.123Z,98623.73
2019-04-25T22:38:06.438Z,98627.94
2019-04-25T22:40:34.397Z,98630.52
2019-04-25T22:43:03.556Z,98628.66
2019-04-25T22:45:31.694Z,98627.59
2019-04-25T22:48:00.349Z,98631.39
2019-04-25T22:50:29.047Z,98627.61
2019-04-25T22:52:57.067Z,98625.73
2019-04-25T22:55:24.858Z,98626.02
2019-04-25T22:57:52.659Z,98633.23
2019-04-25T23:00:25.942Z,98631.02
2019-04-25T23:03:00.835Z,98637.04
2019-04-25T23:05:36.087Z,98646.45
2019-04-25T23:08:04.196Z,98641.59
2019-04-25T23:10:32.018Z,98643.97
2019-04-25T23:12:59.758Z,98633.38
2019-04-25T23:15:27.544Z,98632.78
2019-04-25T23:17:55.563Z,98634.33
2019-04-25T23:20:23.331Z,98637.09
2019-04-25T23:22:51.071Z,98643.39
2019-04-25T23:25:23.410Z,98650.88
2019-04-25T23:28:14.729Z,98653.56
2019-04-25T23:31:01.218Z,98660.19
2019-04-25T23:33:34.258Z,98660.02
2019-04-25T23:36:02.324Z,98659.52
2019-04-25T23:38:30.112Z,98660.05
2019-04-25T23:40:57.862Z,98664.80
2019-04-25T23:43:25.844Z,98665.23
2019-04-25T23:45:53.657Z,98670.97
2019-04-25T23:48:21.555Z,98666.78
2019-04-25T23:50:49.320Z,98659.98
2019-04-25T23:53:23.086Z,98653.76
2019-04-25T23:55:50.864Z,98653.22
2019-04-25T23:58:18.623Z,98648.05
